Time;durP1;ratioP1;P1;durP2;ratioP2;P2;SDS_P1;SDS_P2;PMS_P1;PMS_P2;Temp;Humidity;BMP_temperature;BMP_pressure;BME280_temperature;BME280_humidity;BME280_pressure;Samples;Min_cycle;Max_cycle;Signal;HPM_P1;HPM_P2
2022/08/23 00:00:49;;;;;;;0.85;0.20;;;19.60;99.90;;;;;;5070806;28;20044;-65
2022/08/23 00:03:15;;;;;;;0.15;0.15;;;19.60;99.90;;;;;;5069408;28;20045;-66
2022/08/23 00:05:41;;;;;;;0.20;0.20;;;19.50;99.90;;;;;;5069192;28;20055;-66
2022/08/23 00:08:07;;;;;;;0.20;0.20;;;19.50;99.90;;;;;;5069777;28;20036;-66
2022/08/23 00:10:33;;;;;;;0.43;0.30;;;19.50;99.90;;;;;;5070469;28;20044;-66
2022/08/23 00:12:58;;;;;;;0.40;0.20;;;19.40;99.90;;;;;;5069124;28;20526;-66
2022/08/23 00:15:24;;;;;;;0.22;0.20;;;19.40;99.90;;;;;;5068339;28;20214;-66
2022/08/23 00:17:50;;;;;;;0.10;0.10;;;19.40;99.90;;;;;;5070049;28;20043;-66
2022/08/23 00:20:18;;;;;;;0.40;0.20;;;19.40;99.90;;;;;;5069493;28;20135;-66
2022/08/23 00:22:44;;;;;;;0.20;0.20;;;19.40;99.90;;;;;;5066115;28;20043;-66
2022/08/23 00:25:11;;;;;;;0.70;0.30;;;19.40;99.90;;;;;;5070744;28;20621;-66
2022/08/23 00:27:38;;;;;;;0.40;0.30;;;19.30;99.90;;;;;;5071315;28;20495;-66
2022/08/23 00:30:08;;;;;;;0.30;0.20;;;19.30;99.90;;;;;;5072343;28;20047;-66
2022/08/23 00:32:36;;;;;;;0.50;0.23;;;19.30;99.90;;;;;;5072222;28;20036;-66
2022/08/23 00:35:02;;;;;;;0.25;0.20;;;19.20;99.90;;;;;;5072482;28;20097;-66
2022/08/23 00:37:31;;;;;;;0.50;0.40;;;19.20;99.90;;;;;;5072833;28;20499;-66
2022/08/23 00:39:57;;;;;;;0.40;0.30;;;19.20;99.90;;;;;;5072763;28;20062;-66
2022/08/23 00:48:31;;;;;;;0.40;0.30;;;19.10;99.90;;;;;;5072673;28;20071;-66
2022/08/23 00:51:15;;;;;;;0.50;0.30;;;19.00;99.90;;;;;;5072501;28;20475;-65
2022/08/23 00:53:46;;;;;;;0.70;0.30;;;19.10;99.90;;;;;;5072321;28;20043;-66
2022/08/23 00:56:16;;;;;;;0.80;0.30;;;19.10;99.90;;;;;;5072534;28;20056;-66
2022/08/23 00:58:44;;;;;;;;;;;19.10;99.90;;;;;;5072877;28;20570;-66
2022/08/23 01:01:11;;;;;;;0.50;0.30;;;19.10;99.90;;;;;;5072461;28;20359;-66
2022/08/23 01:03:41;;;;;;;0.40;0.30;;;19.20;99.90;;;;;;5072093;28;20396;-66
2022/08/23 01:06:14;;;;;;;4.35;0.22;;;19.10;99.90;;;;;;5072604;28;20434;-66
2022/08/23 01:08:45;;;;;;;1.45;0.30;;;19.10;99.90;;;;;;5072394;28;20492;-66
2022/08/23 01:11:35;;;;;;;0.28;0.28;;;19.10;99.90;;;;;;5072380;28;20047;-66
2022/08/23 01:14:16;;;;;;;0.40;0.30;;;19.20;99.90;;;;;;5072230;28;20040;-66
2022/08/23 01:16:51;;;;;;;0.30;0.30;;;19.10;99.90;;;;;;5073687;28;20048;-66
2022/08/23 01:19:32;;;;;;;0.40;0.40;;;19.10;99.90;;;;;;5075842;28;20044;-66
2022/08/23 01:22:10;;;;;;;0.45;0.28;;;19.10;99.90;;;;;;5075916;28;20048;-66
2022/08/23 01:24:37;;;;;;;0.57;0.30;;;19.10;99.90;;;;;;5075999;28;20045;-65
2022/08/23 01:27:03;;;;;;;0.55;0.30;;;19.10;99.90;;;;;;5075874;28;20044;-66
2022/08/23 01:29:29;;;;;;;0.43;0.30;;;19.10;99.90;;;;;;5075629;28;20056;-66
2022/08/23 01:31:55;;;;;;;1.10;0.50;;;19.10;99.90;;;;;;5075359;28;20087;-65
2022/08/23 01:34:25;;;;;;;0.77;0.30;;;18.90;99.90;;;;;;5075342;28;20515;-66
2022/08/23 01:37:04;;;;;;;1.02;0.30;;;18.80;99.90;;;;;;5075691;28;20040;-65
2022/08/23 01:39:30;;;;;;;2.38;0.30;;;18.80;99.90;;;;;;5075582;28;20035;-65
2022/08/23 01:41:57;;;;;;;0.28;0.28;;;18.70;99.90;;;;;;5074316;28;20469;-66
2022/08/23 01:44:29;;;;;;;0.45;0.40;;;18.60;99.90;;;;;;5075537;28;20037;-66
2022/08/23 01:46:55;;;;;;;0.47;0.38;;;18.60;99.90;;;;;;5075536;28;20047;-66
2022/08/23 01:49:20;;;;;;;0.40;0.30;;;18.60;99.90;;;;;;5075445;28;20392;-66
2022/08/23 01:51:46;;;;;;;0.20;0.20;;;18.70;99.90;;;;;;5075464;28;20028;-66
2022/08/23 01:54:12;;;;;;;0.30;0.20;;;18.60;99.90;;;;;;5075335;28;20112;-66
2022/08/23 01:56:40;;;;;;;0.25;0.22;;;18.50;99.90;;;;;;5075294;28;20040;-66
2022/08/23 01:59:08;;;;;;;0.35;0.32;;;18.50;99.90;;;;;;5075234;28;20041;-65
2022/08/23 02:01:35;;;;;;;0.47;0.40;;;18.50;99.90;;;;;;5075281;28;20381;-66
2022/08/23 02:04:01;;;;;;;0.40;0.28;;;18.40;99.90;;;;;;5075074;28;20033;-66
2022/08/23 02:06:26;;;;;;;0.55;0.30;;;18.40;99.90;;;;;;5075042;28;20051;-65
2022/08/23 02:09:01;;;;;;;2.05;0.40;;;18.50;99.90;;;;;;5074897;28;20064;-66
2022/08/23 02:11:35;;;;;;;0.43;0.40;;;18.40;99.90;;;;;;5074820;28;20048;-65
2022/08/23 02:14:04;;;;;;;0.43;0.40;;;18.40;99.90;;;;;;5074594;28;20094;-66
2022/08/23 02:16:34;;;;;;;0.52;0.30;;;18.30;99.90;;;;;;5074818;28;20047;-65
2022/08/23 02:19:01;;;;;;;0.43;0.40;;;18.30;99.90;;;;;;5074884;28;20051;-66
2022/08/23 02:21:31;;;;;;;0.50;0.40;;;18.30;99.90;;;;;;5074859;28;20041;-66
2022/08/23 02:24:05;;;;;;;1.20;0.50;;;18.40;99.90;;;;;;5074794;28;20045;-66
2022/08/23 02:26:31;;;;;;;0.50;0.40;;;18.40;99.90;;;;;;5074770;28;20047;-66
2022/08/23 02:28:56;;;;;;;0.40;0.40;;;18.30;99.90;;;;;;5073685;28;20040;-66
2022/08/23 02:31:22;;;;;;;1.58;0.60;;;18.40;99.90;;;;;;5074430;28;20055;-66
2022/08/23 02:33:48;;;;;;;0.88;0.30;;;18.40;99.90;;;;;;5074289;28;20381;-66
2022/08/23 02:36:14;;;;;;;0.30;0.28;;;18.40;99.90;;;;;;5073983;28;20045;-66
2022/08/23 02:38:40;;;;;;;0.63;0.30;;;18.40;99.90;;;;;;5074326;28;20089;-66
2022/08/23 02:41:06;;;;;;;0.80;0.40;;;18.40;99.90;;;;;;5074347;28;20056;-66
2022/08/23 02:43:32;;;;;;;0.45;0.32;;;18.40;99.90;;;;;;5074416;28;20097;-66
2022/08/23 02:45:58;;;;;;;1.13;0.40;;;18.40;99.90;;;;;;5074306;28;20068;-66
2022/08/23 02:48:25;;;;;;;1.30;0.47;;;18.40;99.90;;;;;;5074079;28;20123;-66
2022/08/23 02:50:51;;;;;;;0.40;0.40;;;18.40;99.90;;;;;;5073995;28;20052;-66
2022/08/23 02:53:17;;;;;;;1.02;0.40;;;18.40;99.90;;;;;;5074151;28;20058;-66
2022/08/23 02:55:46;;;;;;;0.55;0.40;;;18.30;99.90;;;;;;5074027;28;20139;-66
2022/08/23 02:58:13;;;;;;;0.25;0.25;;;18.40;99.90;;;;;;5072541;28;20110;-66
2022/08/23 03:00:38;;;;;;;1.70;0.55;;;18.30;99.90;;;;;;5074073;28;20036;-66
2022/08/23 03:03:05;;;;;;;0.35;0.30;;;18.40;99.90;;;;;;5073944;28;20040;-66
2022/08/23 03:05:31;;;;;;;0.65;0.43;;;18.30;99.90;;;;;;5074037;28;20487;-66
2022/08/23 03:07:57;;;;;;;0.65;0.43;;;18.30;99.90;;;;;;5073742;28;20052;-66
2022/08/23 03:10:26;;;;;;;0.35;0.30;;;18.30;99.90;;;;;;5073811;28;20041;-66
2022/08/23 03:12:51;;;;;;;0.30;0.30;;;18.40;99.90;;;;;;5073503;28;20044;-66
2022/08/23 03:15:17;;;;;;;0.40;0.30;;;18.40;99.90;;;;;;5073517;28;20043;-66
2022/08/23 03:17:43;;;;;;;0.82;0.40;;;18.40;99.90;;;;;;5073825;28;20044;-66
2022/08/23 03:20:09;;;;;;;0.45;0.35;;;18.30;99.90;;;;;;5073556;28;20041;-66
2022/08/23 03:22:36;;;;;;;0.65;0.40;;;18.30;99.90;;;;;;5073347;28;20127;-66
2022/08/23 03:25:04;;;;;;;0.70;0.40;;;18.30;99.90;;;;;;5073197;28;20048;-66
2022/08/23 03:27:30;;;;;;;0.57;0.43;;;18.10;99.90;;;;;;5073268;28;20123;-66
2022/08/23 03:29:56;;;;;;;0.60;0.40;;;18.10;99.90;;;;;;5073478;28;20044;-66
2022/08/23 03:32:22;;;;;;;0.73;0.30;;;18.00;99.90;;;;;;5073390;28;20041;-66
2022/08/23 03:34:48;;;;;;;0.43;0.30;;;18.00;99.90;;;;;;5073507;28;20140;-66
2022/08/23 03:37:13;;;;;;;0.57;0.32;;;18.10;99.90;;;;;;5073348;28;20119;-66
2022/08/23 03:39:39;;;;;;;3.50;0.60;;;18.00;99.90;;;;;;5072319;28;20090;-66
2022/08/23 03:42:06;;;;;;;0.22;0.22;;;17.90;99.90;;;;;;5073144;28;20040;-66
2022/08/23 03:44:32;;;;;;;1.13;0.50;;;18.00;99.90;;;;;;5073238;28;20512;-66
2022/08/23 03:46:57;;;;;;;0.88;0.30;;;18.00;99.90;;;;;;5073192;28;20040;-66
2022/08/23 03:49:23;;;;;;;0.30;0.25;;;18.10;99.90;;;;;;5072972;28;20044;-66
2022/08/23 03:51:49;;;;;;;0.38;0.38;;;18.10;99.90;;;;;;5072113;28;20052;-66
2022/08/23 03:54:15;;;;;;;0.43;0.40;;;18.20;99.90;;;;;;5073443;28;20185;-66
2022/08/23 03:56:59;;;;;;;7.85;0.40;;;18.20;99.90;;;;;;5085892;28;20138;-66
2022/08/23 03:59:26;;;;;;;1.27;0.50;;;18.30;99.90;;;;;;5057359;28;20041;-66
2022/08/23 04:01:52;;;;;;;0.57;0.40;;;18.10;99.90;;;;;;5076033;28;20491;-66
2022/08/23 04:04:18;;;;;;;0.73;0.50;;;18.10;99.90;;;;;;5072537;28;20032;-66
2022/08/23 04:06:44;;;;;;;0.57;0.50;;;18.00;99.90;;;;;;5072474;28;20106;-66
2022/08/23 04:09:11;;;;;;;0.57;0.30;;;18.00;99.90;;;;;;5084785;28;20035;-66
2022/08/23 04:11:38;;;;;;;0.43;0.35;;;18.00;99.90;;;;;;5091079;28;20047;-66
2022/08/23 04:14:05;;;;;;;0.60;0.30;;;18.00;99.90;;;;;;5092347;28;20050;-66
2022/08/23 04:16:36;;;;;;;0.30;0.30;;;18.10;99.90;;;;;;5086072;28;20098;-66
2022/08/23 04:19:04;;;;;;;1.52;0.40;;;18.10;99.90;;;;;;5064904;28;20068;-65
2022/08/23 04:21:35;;;;;;;0.45;0.45;;;18.00;99.90;;;;;;5062975;28;20040;-66
2022/08/23 04:24:01;;;;;;;0.52;0.30;;;18.00;99.90;;;;;;5070757;28;20124;-66
2022/08/23 04:26:27;;;;;;;0.50;0.40;;;18.00;99.90;;;;;;5070561;28;20040;-66
2022/08/23 04:28:53;;;;;;;0.40;0.40;;;17.90;99.90;;;;;;5069913;28;20097;-66
2022/08/23 04:31:20;;;;;;;0.63;0.40;;;17.90;99.90;;;;;;5071104;28;20044;-66
2022/08/23 04:33:46;;;;;;;0.47;0.30;;;17.90;99.90;;;;;;5072286;28;20048;-66
2022/08/23 04:36:13;;;;;;;0.30;0.30;;;17.70;99.90;;;;;;5070429;28;20098;-66
2022/08/23 04:38:38;;;;;;;0.90;0.40;;;17.60;99.90;;;;;;5069998;28;20048;-67
2022/08/23 04:43:49;;;;;;;0.40;0.38;;;17.50;99.90;;;;;;5062255;28;20131;-66
2022/08/23 04:46:15;;;;;;;0.77;0.40;;;17.60;99.90;;;;;;5050397;28;20041;-66
2022/08/23 04:48:43;;;;;;;0.95;0.50;;;17.60;99.90;;;;;;5050485;28;20076;-66
2022/08/23 04:51:09;;;;;;;0.98;0.52;;;17.80;99.90;;;;;;5052476;28;20412;-66
2022/08/23 04:53:35;;;;;;;0.28;0.22;;;17.90;99.90;;;;;;5055828;28;20415;-66
2022/08/23 04:56:03;;;;;;;0.50;0.40;;;18.00;99.90;;;;;;5056233;28;20079;-66
2022/08/23 04:58:30;;;;;;;0.70;0.40;;;17.90;99.90;;;;;;5056189;28;20041;-66
2022/08/23 05:00:58;;;;;;;0.65;0.35;;;18.00;99.90;;;;;;5056178;28;20037;-66
2022/08/23 05:03:25;;;;;;;0.32;0.28;;;18.00;99.90;;;;;;5056307;28;20032;-65
2022/08/23 05:05:52;;;;;;;1.23;0.50;;;18.00;99.90;;;;;;5055907;28;20094;-66
2022/08/23 05:08:18;;;;;;;1.00;0.57;;;17.90;99.90;;;;;;5054989;28;20049;-66
2022/08/23 05:10:45;;;;;;;0.50;0.30;;;18.00;99.90;;;;;;5055843;28;20403;-66
2022/08/23 05:13:10;;;;;;;0.32;0.32;;;18.00;99.90;;;;;;5055808;28;20041;-66
2022/08/23 05:15:36;;;;;;;0.52;0.40;;;18.00;99.90;;;;;;5055664;28;20588;-66
2022/08/23 05:18:02;;;;;;;0.22;0.20;;;18.00;99.90;;;;;;5055711;28;20111;-66
2022/08/23 05:20:28;;;;;;;0.32;0.30;;;18.00;99.90;;;;;;5055989;28;20048;-66
2022/08/23 05:22:53;;;;;;;0.35;0.30;;;18.00;99.90;;;;;;5056031;28;20037;-66
2022/08/23 05:25:20;;;;;;;0.70;0.50;;;18.00;99.90;;;;;;5056073;28;20041;-65
2022/08/23 05:27:46;;;;;;;0.40;0.40;;;18.00;99.90;;;;;;5055823;28;20033;-66
2022/08/23 05:30:12;;;;;;;0.35;0.30;;;18.10;99.90;;;;;;5055699;28;20051;-66
2022/08/23 05:32:38;;;;;;;0.47;0.40;;;18.00;99.90;;;;;;5055160;28;20095;-66
2022/08/23 05:35:04;;;;;;;1.00;0.40;;;18.00;99.90;;;;;;5055697;28;20047;-66
2022/08/23 05:37:31;;;;;;;0.40;0.40;;;18.10;99.90;;;;;;5054202;28;20119;-66
2022/08/23 05:39:57;;;;;;;0.17;0.17;;;18.20;99.90;;;;;;5055534;28;20045;-65
2022/08/23 05:42:23;;;;;;;0.60;0.50;;;18.30;99.90;;;;;;5055506;28;20041;-66
2022/08/23 05:44:49;;;;;;;0.85;0.50;;;18.60;99.90;;;;;;5055499;28;20127;-65
2022/08/23 05:47:16;;;;;;;0.85;0.40;;;18.80;99.90;;;;;;5055655;28;20128;-65
2022/08/23 05:49:42;;;;;;;0.22;0.20;;;19.10;99.90;;;;;;5055537;28;20044;-66
2022/08/23 05:52:10;;;;;;;0.20;0.20;;;19.30;99.90;;;;;;5055582;28;20412;-65
2022/08/23 05:54:36;;;;;;;0.32;0.32;;;19.30;99.90;;;;;;5055474;28;20049;-66
2022/08/23 05:57:02;;;;;;;0.57;0.40;;;19.30;99.90;;;;;;5055456;28;20059;-65
2022/08/23 05:59:29;;;;;;;0.30;0.30;;;;;;;;;;5055315;28;20048;-65
2022/08/23 06:01:56;;;;;;;1.75;0.47;;;19.70;99.90;;;;;;5055329;28;20045;-65
2022/08/23 06:04:22;;;;;;;0.80;0.40;;;19.60;99.90;;;;;;5054150;28;20587;-65
2022/08/23 06:06:48;;;;;;;0.40;0.22;;;19.80;99.90;;;;;;5055244;28;20052;-65
2022/08/23 06:09:16;;;;;;;1.30;0.45;;;20.10;99.90;;;;;;5055185;28;20047;-65
2022/08/23 06:11:47;;;;;;;0.50;0.32;;;20.20;99.90;;;;;;5055212;28;20044;-66
2022/08/23 06:14:13;;;;;;;0.30;0.30;;;20.50;99.90;;;;;;5054950;28;20160;-66
2022/08/23 06:16:42;;;;;;;0.32;0.32;;;20.90;99.90;;;;;;5055043;28;20098;-65
2022/08/23 06:19:09;;;;;;;0.60;0.30;;;21.10;99.90;;;;;;5055028;28;20091;-66
2022/08/23 06:21:37;;;;;;;0.50;0.40;;;21.40;99.90;;;;;;5055048;28;20573;-66
2022/08/23 06:24:03;;;;;;;0.35;0.35;;;21.20;99.90;;;;;;5054931;28;20555;-66
2022/08/23 06:26:31;;;;;;;0.43;0.32;;;21.60;99.90;;;;;;5054853;28;20120;-66
2022/08/23 06:29:01;;;;;;;2.33;0.30;;;21.50;99.90;;;;;;5054919;28;20094;-66
2022/08/23 06:31:46;;;;;;;0.52;0.47;;;21.90;99.90;;;;;;5054969;28;20036;-65
2022/08/23 06:34:32;;;;;;;0.30;0.30;;;21.60;99.90;;;;;;5054626;28;20162;-65
2022/08/23 06:37:16;;;;;;;2.25;0.47;;;21.90;99.90;;;;;;5054615;28;20416;-66
2022/08/23 06:39:42;;;;;;;1.48;0.40;;;22.50;99.90;;;;;;5054582;28;20033;-66
2022/08/23 06:42:13;;;;;;;0.30;0.30;;;21.60;99.90;;;;;;5054435;28;20040;-66
2022/08/23 06:44:39;;;;;;;0.32;0.30;;;22.20;99.90;;;;;;5054562;28;20068;-66
2022/08/23 06:47:06;;;;;;;0.63;0.30;;;21.90;99.90;;;;;;5054530;28;20045;-66
2022/08/23 06:49:32;;;;;;;0.28;0.22;;;22.10;99.90;;;;;;5054497;28;20037;-66
2022/08/23 06:52:00;;;;;;;1.35;0.22;;;22.20;99.90;;;;;;5054408;28;20048;-66
2022/08/23 06:54:28;;;;;;;1.15;0.30;;;22.20;99.90;;;;;;5053022;28;20373;-66
2022/08/23 06:56:54;;;;;;;1.48;0.52;;;22.70;99.90;;;;;;5054370;28;20052;-66
2022/08/23 06:59:20;;;;;;;0.20;0.20;;;22.80;99.90;;;;;;5054346;28;20120;-66
2022/08/23 07:01:55;;;;;;;0.52;0.40;;;22.70;99.90;;;;;;5054168;28;20400;-66
2022/08/23 07:04:24;;;;;;;0.32;0.22;;;23.00;99.90;;;;;;5054406;28;20041;-66
2022/08/23 07:06:53;;;;;;;0.52;0.28;;;23.30;99.90;;;;;;5054083;28;20047;-66
2022/08/23 07:09:19;;;;;;;0.40;0.40;;;22.20;99.90;;;;;;5054107;28;20048;-66
2022/08/23 07:11:45;;;;;;;0.38;0.25;;;22.10;99.90;;;;;;5054026;28;20041;-66
2022/08/23 07:14:12;;;;;;;0.32;0.30;;;22.50;99.90;;;;;;5053595;28;20037;-66
2022/08/23 07:16:44;;;;;;;0.50;0.20;;;22.40;99.90;;;;;;5053907;28;20037;-66
2022/08/23 07:19:11;;;;;;;3.03;0.40;;;22.10;99.90;;;;;;5053856;28;20033;-66
2022/08/23 07:21:37;;;;;;;0.32;0.20;;;22.30;99.90;;;;;;5053861;28;20043;-66
2022/08/23 07:24:04;;;;;;;0.68;0.20;;;22.20;99.90;;;;;;5053777;28;20116;-66
2022/08/23 07:26:30;;;;;;;0.50;0.30;;;22.40;99.90;;;;;;5053575;28;20102;-66
2022/08/23 07:28:56;;;;;;;1.35;0.28;;;22.60;99.90;;;;;;5053528;28;20033;-66
2022/08/23 07:31:27;;;;;;;0.32;0.20;;;23.40;99.90;;;;;;5058104;28;20578;-65
2022/08/23 07:33:55;;;;;;;0.35;0.20;;;23.20;99.90;;;;;;5053490;28;20037;-66
2022/08/23 07:36:23;;;;;;;0.52;0.38;;;22.70;99.90;;;;;;5053560;28;20047;-66
2022/08/23 07:38:49;;;;;;;0.55;0.32;;;23.00;99.90;;;;;;5053590;28;20389;-66
2022/08/23 07:41:16;;;;;;;0.30;0.25;;;24.00;99.90;;;;;;5053410;28;20415;-66
2022/08/23 07:43:43;;;;;;;0.52;0.30;;;23.80;99.90;;;;;;5053360;28;20171;-66
2022/08/23 07:46:10;;;;;;;0.82;0.30;;;23.90;99.90;;;;;;5053353;28;20036;-66
2022/08/23 07:48:37;;;;;;;0.30;0.30;;;24.50;99.90;;;;;;5053135;28;20051;-66
2022/08/23 07:51:06;;;;;;;0.30;0.30;;;24.80;99.90;;;;;;5053166;28;20049;-66
2022/08/23 07:53:32;;;;;;;1.08;0.40;;;24.50;99.90;;;;;;5053097;28;20098;-66
2022/08/23 07:55:58;;;;;;;0.47;0.30;;;24.30;99.90;;;;;;5052947;28;20068;-66
2022/08/23 07:58:25;;;;;;;0.45;0.35;;;23.90;99.90;;;;;;5053166;28;20565;-66
2022/08/23 08:00:52;;;;;;;0.60;0.40;;;24.10;99.90;;;;;;5053136;28;20040;-66
2022/08/23 08:03:19;;;;;;;0.25;0.25;;;24.20;99.90;;;;;;5053217;28;20045;-66
2022/08/23 08:05:45;;;;;;;0.68;0.40;;;24.00;99.90;;;;;;5053224;28;20040;-66
2022/08/23 08:08:11;;;;;;;0.45;0.30;;;23.90;99.90;;;;;;5053053;28;20048;-66
2022/08/23 08:10:39;;;;;;;0.88;0.43;;;24.60;99.90;;;;;;5052927;28;20046;-66
2022/08/23 08:13:06;;;;;;;0.40;0.30;;;24.20;99.90;;;;;;5051495;28;20063;-66
2022/08/23 08:15:32;;;;;;;0.50;0.35;;;24.40;99.90;;;;;;5052633;28;20048;-66
2022/08/23 08:17:58;;;;;;;1.33;0.40;;;24.50;99.90;;;;;;5052960;28;20037;-66
2022/08/23 08:20:25;;;;;;;2.67;0.40;;;;;;;;;;5053077;28;20373;-66
2022/08/23 08:22:51;;;;;;;0.63;0.50;;;25.40;99.90;;;;;;5052981;28;20045;-66
2022/08/23 08:25:17;;;;;;;0.50;0.38;;;25.30;99.90;;;;;;5052875;28;20412;-66
2022/08/23 08:27:43;;;;;;;0.35;0.32;;;25.80;99.90;;;;;;5056010;28;20045;-66
2022/08/23 08:30:10;;;;;;;1.17;0.40;;;25.90;99.90;;;;;;5056967;28;20045;-66
2022/08/23 08:32:36;;;;;;;1.15;0.50;;;25.60;99.90;;;;;;5057061;28;20024;-66
2022/08/23 08:35:02;;;;;;;0.30;0.30;;;25.30;99.90;;;;;;5056929;28;20136;-66
2022/08/23 08:37:29;;;;;;;0.75;0.30;;;24.70;99.90;;;;;;5056757;28;20493;-65
2022/08/23 08:39:54;;;;;;;0.77;0.32;;;24.30;99.90;;;;;;5056605;28;20055;-66
2022/08/23 08:42:39;;;;;;;0.47;0.40;;;24.60;99.90;;;;;;5056702;28;20116;-66
2022/08/23 08:45:31;;;;;;;0.43;0.38;;;24.70;99.90;;;;;;5056796;28;20073;-65
2022/08/23 08:48:08;;;;;;;0.57;0.40;;;25.90;99.90;;;;;;5063167;28;20107;-65
2022/08/23 08:50:45;;;;;;;0.70;0.40;;;25.50;99.90;;;;;;5059871;28;20450;-66
2022/08/23 08:53:31;;;;;;;0.40;0.40;;;25.30;99.90;;;;;;5055953;28;20043;-65
2022/08/23 08:56:00;;;;;;;2.65;0.45;;;25.50;99.90;;;;;;5052320;28;20488;-65
2022/08/23 08:58:35;;;;;;;0.38;0.38;;;25.00;99.90;;;;;;5056412;28;20037;-65
2022/08/23 09:01:01;;;;;;;1.05;0.55;;;25.20;99.90;;;;;;5056364;28;20039;-66
2022/08/23 09:03:33;;;;;;;0.77;0.50;;;25.20;99.90;;;;;;5056423;28;20530;-65
2022/08/23 09:06:15;;;;;;;0.75;0.50;;;25.80;99.90;;;;;;5056443;28;20048;-66
2022/08/23 09:09:03;;;;;;;6.13;0.38;;;25.90;99.70;;;;;;5056307;28;20158;-65
2022/08/23 09:11:59;;;;;;;2.58;0.43;;;25.50;99.90;;;;;;5056281;28;20041;-65
2022/08/23 09:15:04;;;;;;;0.68;0.30;;;25.30;99.90;;;;;;5056226;28;20499;-65
2022/08/23 09:17:50;;;;;;;0.90;0.40;;;25.20;99.90;;;;;;5056171;28;20044;-65
2022/08/23 09:20:19;;;;;;;0.20;0.20;;;25.00;99.90;;;;;;5055974;28;20041;-65
2022/08/23 09:22:50;;;;;;;0.30;0.30;;;25.50;99.90;;;;;;5056348;28;20082;-65
2022/08/23 09:25:16;;;;;;;1.75;0.30;;;25.90;99.90;;;;;;5055988;28;20453;-65
2022/08/23 09:27:43;;;;;;;0.88;0.43;;;25.10;99.90;;;;;;5055932;28;20090;-65
2022/08/23 09:30:14;;;;;;;0.57;0.38;;;25.80;99.70;;;;;;5056120;28;20037;-65
2022/08/23 09:32:43;;;;;;;0.95;0.20;;;25.60;99.80;;;;;;5055918;28;20626;-65
2022/08/23 09:35:17;;;;;;;1.27;0.43;;;25.70;98.90;;;;;;5055840;28;20161;-65
2022/08/23 09:37:49;;;;;;;0.85;0.40;;;25.60;99.20;;;;;;5055661;28;20048;-65
2022/08/23 09:40:25;;;;;;;1.05;0.63;;;25.90;99.40;;;;;;5055531;28;20053;-66
2022/08/23 09:43:09;;;;;;;0.30;0.30;;;25.70;99.00;;;;;;5055719;28;20044;-65
2022/08/23 09:45:38;;;;;;;0.75;0.52;;;25.40;99.10;;;;;;5055592;28;20495;-65
2022/08/23 09:48:05;;;;;;;1.48;0.70;;;25.20;98.90;;;;;;5061962;28;20036;-65
2022/08/23 09:50:46;;;;;;;1.70;0.40;;;25.30;99.60;;;;;;5075540;28;20139;-65
2022/08/23 09:53:14;;;;;;;0.50;0.45;;;26.00;99.20;;;;;;5074655;28;20113;-65
2022/08/23 09:55:50;;;;;;;1.60;0.50;;;25.60;98.60;;;;;;5075432;28;20106;-65
2022/08/23 09:58:31;;;;;;;0.93;0.40;;;25.80;98.10;;;;;;5075295;28;20032;-65
2022/08/23 10:01:24;;;;;;;1.20;0.40;;;26.20;98.20;;;;;;5075187;28;20048;-65
2022/08/23 10:04:11;;;;;;;0.98;0.40;;;25.80;97.90;;;;;;5075344;28;20040;-65
2022/08/23 10:06:38;;;;;;;2.13;0.50;;;25.90;97.90;;;;;;5075216;28;20500;-65
2022/08/23 10:09:06;;;;;;;1.65;0.60;;;25.60;97.80;;;;;;5075412;28;20040;-65
2022/08/23 10:11:43;;;;;;;0.40;0.30;;;26.00;97.20;;;;;;5075003;28;20047;-65
2022/08/23 10:14:16;;;;;;;0.82;0.60;;;25.80;97.80;;;;;;5074801;28;20083;-65
2022/08/23 10:17:07;;;;;;;0.70;0.40;;;25.50;97.90;;;;;;5074860;28;20051;-65
2022/08/23 10:19:38;;;;;;;1.15;0.50;;;25.70;98.10;;;;;;5074906;28;20042;-65
2022/08/23 10:22:10;;;;;;;0.70;0.40;;;25.70;97.90;;;;;;5074922;28;20032;-65
2022/08/23 10:24:49;;;;;;;0.80;0.35;;;26.60;97.60;;;;;;5074983;28;20048;-65
2022/08/23 10:30:37;;;;;;;2.15;0.20;;;26.10;96.50;;;;;;5074763;28;20086;-65
2022/08/23 10:33:26;;;;;;;0.90;0.50;;;26.40;97.20;;;;;;5074787;28;20459;-65
2022/08/23 10:35:59;;;;;;;1.30;0.50;;;26.30;96.60;;;;;;5063016;28;20044;-65
2022/08/23 10:38:30;;;;;;;0.60;0.50;;;26.10;97.20;;;;;;5074495;28;20041;-65
2022/08/23 10:41:07;;;;;;;0.45;0.20;;;26.50;96.40;;;;;;5074486;28;20059;-65
2022/08/23 10:43:39;;;;;;;0.50;0.30;;;26.20;96.60;;;;;;5074573;28;20127;-65
2022/08/23 10:46:07;;;;;;;0.82;0.40;;;26.90;97.00;;;;;;5074564;28;20442;-65
2022/08/23 10:48:55;;;;;;;1.90;0.60;;;26.90;95.80;;;;;;5074211;28;20051;-65
2022/08/23 10:51:31;;;;;;;1.20;0.50;;;26.80;95.70;;;;;;5074330;28;20520;-65
2022/08/23 10:54:08;;;;;;;0.70;0.50;;;26.40;95.10;;;;;;5074108;28;20040;-65
2022/08/23 10:56:37;;;;;;;0.45;0.40;;;26.20;95.30;;;;;;5074086;28;20040;-65
2022/08/23 10:59:13;;;;;;;0.70;0.30;;;26.50;94.40;;;;;;5073991;28;20094;-65
2022/08/23 11:02:00;;;;;;;1.60;0.68;;;26.90;93.90;;;;;;5074021;28;20028;-65
2022/08/23 11:04:32;;;;;;;0.63;0.40;;;27.10;94.10;;;;;;5074169;28;20503;-65
2022/08/23 11:07:01;;;;;;;0.73;0.50;;;27.10;93.90;;;;;;5074092;28;20036;-65
2022/08/23 11:09:29;;;;;;;3.00;0.40;;;27.10;93.80;;;;;;5074004;28;20139;-65
2022/08/23 11:12:18;;;;;;;3.60;0.50;;;27.40;93.50;;;;;;5073839;28;20082;-65
2022/08/23 11:15:11;;;;;;;0.55;0.30;;;27.50;94.20;;;;;;5073860;28;20040;-65
2022/08/23 11:17:49;;;;;;;1.33;0.60;;;27.10;93.50;;;;;;5074063;28;20071;-65
2022/08/23 11:20:50;;;;;;;0.75;0.20;;;27.00;93.50;;;;;;5073455;28;20036;-65
2022/08/23 11:23:37;;;;;;;0.47;0.40;;;26.90;92.20;;;;;;5073730;28;20468;-65
2022/08/23 11:26:05;;;;;;;4.55;0.50;;;27.40;92.20;;;;;;5073766;28;20044;-65
2022/08/23 11:28:38;;;;;;;0.47;0.30;;;26.70;92.70;;;;;;5073682;28;20086;-65
2022/08/23 11:31:09;;;;;;;0.43;0.22;;;26.60;93.00;;;;;;5073652;28;20075;-65
2022/08/23 11:33:51;;;;;;;0.45;0.40;;;27.50;92.00;;;;;;5073507;28;20553;-65
2022/08/23 11:36:23;;;;;;;0.77;0.55;;;27.80;91.80;;;;;;5073273;28;20040;-65
2022/08/23 11:38:49;;;;;;;0.95;0.50;;;27.50;91.80;;;;;;5073349;28;20078;-66
2022/08/23 11:41:29;;;;;;;0.93;0.40;;;27.60;92.30;;;;;;5073298;28;20437;-65
2022/08/23 11:43:55;;;;;;;0.70;0.47;;;26.60;91.90;;;;;;5073493;28;20575;-65
2022/08/23 11:46:24;;;;;;;0.52;0.40;;;26.20;91.60;;;;;;5073362;28;20068;-65
2022/08/23 11:49:08;;;;;;;0.30;0.30;;;26.40;92.00;;;;;;5073358;28;20119;-65
2022/08/23 11:51:49;;;;;;;0.60;0.47;;;26.40;91.60;;;;;;5073345;28;20033;-66
2022/08/23 11:54:34;;;;;;;0.80;0.40;;;26.50;92.10;;;;;;5073031;28;20094;-65
2022/08/23 11:57:27;;;;;;;0.65;0.38;;;26.60;92.10;;;;;;5073080;28;20047;-65
2022/08/23 12:00:15;;;;;;;0.20;0.20;;;25.80;93.00;;;;;;5073185;28;20044;-65
2022/08/23 12:02:50;;;;;;;0.82;0.40;;;25.90;93.50;;;;;;5072352;28;20050;-65
2022/08/23 12:05:19;;;;;;;0.68;0.50;;;26.20;93.90;;;;;;5071555;28;20036;-66
2022/08/23 12:07:51;;;;;;;8.00;1.13;;;26.20;93.30;;;;;;5052745;28;20032;-66
2022/08/23 12:10:44;;;;;;;0.57;0.30;;;26.20;93.00;;;;;;5052867;28;20072;-66
2022/08/23 12:13:18;;;;;;;0.43;0.43;;;26.90;94.00;;;;;;5052520;28;20043;-66
2022/08/23 12:16:03;;;;;;;1.15;0.82;;;;;;;;;;5053321;28;20074;-66
2022/08/23 12:18:31;;;;;;;0.30;0.30;;;26.80;99.40;;;;;;5052268;28;20048;-65
2022/08/23 12:20:59;;;;;;;0.65;0.30;;;26.20;92.50;;;;;;5052480;28;20021;-65
2022/08/23 12:23:25;;;;;;;0.55;0.30;;;26.00;93.10;;;;;;5052721;28;20045;-66
2022/08/23 12:25:59;;;;;;;0.30;0.30;;;26.00;93.10;;;;;;5052712;28;20119;-66
2022/08/23 12:28:39;;;;;;;2.28;0.38;;;25.90;92.40;;;;;;5052587;28;20060;-66
2022/08/23 12:31:23;;;;;;;1.55;0.40;;;26.00;92.00;;;;;;5052455;28;20091;-66
2022/08/23 12:34:03;;;;;;;1.17;0.50;;;26.20;92.10;;;;;;5052524;28;20041;-66
2022/08/23 12:36:55;;;;;;;1.65;0.38;;;26.40;92.00;;;;;;5053324;28;20049;-65
2022/08/23 12:39:33;;;;;;;0.30;0.20;;;26.50;91.70;;;;;;5051842;28;20037;-66
2022/08/23 12:42:09;;;;;;;0.30;0.22;;;26.80;91.70;;;;;;5052227;28;20048;-66
2022/08/23 12:44:35;;;;;;;0.20;0.20;;;27.20;91.60;;;;;;5052650;28;20072;-66
2022/08/23 12:47:20;;;;;;;2.40;0.40;;;26.80;90.90;;;;;;5052436;28;20041;-65
2022/08/23 12:50:11;;;;;;;0.52;0.20;;;26.60;91.30;;;;;;5052491;28;20072;-66
2022/08/23 12:52:37;;;;;;;0.30;0.28;;;26.40;90.70;;;;;;5062635;28;20039;-65
2022/08/23 12:55:12;;;;;;;0.20;0.20;;;26.70;90.60;;;;;;5053206;28;20080;-65
2022/08/23 12:57:42;;;;;;;0.50;0.30;;;26.80;89.50;;;;;;5052391;28;20033;-66
2022/08/23 13:00:13;;;;;;;0.70;0.30;;;27.30;89.80;;;;;;5052323;28;20041;-66
2022/08/23 13:02:42;;;;;;;0.20;0.20;;;;;;;;;;5053290;28;20039;-66
2022/08/23 13:05:26;;;;;;;0.10;0.10;;;27.20;88.20;;;;;;5060818;28;20132;-65
2022/08/23 13:07:52;;;;;;;0.70;0.30;;;27.50;88.20;;;;;;5057124;28;20037;-66
2022/08/23 13:10:26;;;;;;;0.60;0.30;;;27.40;87.70;;;;;;5060125;28;20063;-65
2022/08/23 13:12:52;;;;;;;1.10;0.50;;;27.50;88.30;;;;;;5052272;28;20043;-65
2022/08/23 13:15:39;;;;;;;0.22;0.22;;;26.80;88.40;;;;;;5054631;28;20045;-65
2022/08/23 13:18:05;;;;;;;1.58;0.40;;;26.50;89.80;;;;;;5053165;28;20055;-65